Terminal Aerodrome Forecast
Issued by NWS Boston, MA

Home | Current Version | Previous Version | Text Only | Print | Product List | Glossary On
Versions: 1 2 3 4 5 6 7 8 9 10 11 12 13 14 15 16 17 18 19 20 21 22 23 24 25 26 27 28 29 30 31 32 33 34 35 36 37 38 39 40 41 42 43 44 45 46 47 48 49 50
000
FTUS41 KBOX 252052 AAB
TAFBOS
TAF AMD
KBOS 252052Z 2521/2624 19012KT P6SM SCT050 OVC200
     FM260000 22009KT P6SM FEW050 OVC200
     FM260100 22009KT P6SM VCSH SCT060 OVC150
     FM260300 23008KT P6SM OVC200
     FM260500 24007KT P6SM SCT200
     FM261000 27007KT P6SM FEW200
     FM262300 31007KT P6SM FEW070=

USA.gov is the U.S. government's official web portal to all federal, state and local government web resources and services.